sensor_id;sensor_type;location;lat;lon;timestamp;temperature;humidity
44170;DHT22;29836;52.286;9.576;2023-03-12T00:00:03;-2.70;99.90
44170;DHT22;29836;52.286;9.576;2023-03-12T00:02:33;-2.70;99.90
44170;DHT22;29836;52.286;9.576;2023-03-12T00:04:59;-2.80;99.90
44170;DHT22;29836;52.286;9.576;2023-03-12T00:07:24;-2.80;99.90
44170;DHT22;29836;52.286;9.576;2023-03-12T00:09:50;-2.90;99.90
44170;DHT22;29836;52.286;9.576;2023-03-12T00:12:15;-2.90;99.90
44170;DHT22;29836;52.286;9.576;2023-03-12T00:14:41;-3.00;99.90
44170;DHT22;29836;52.286;9.576;2023-03-12T00:17:06;-3.00;99.90
44170;DHT22;29836;52.286;9.576;2023-03-12T00:19:32;-3.00;99.90
44170;DHT22;29836;52.286;9.576;2023-03-12T00:21:57;-3.00;99.90
44170;DHT22;29836;52.286;9.576;2023-03-12T00:24:23;-2.90;99.90
44170;DHT22;29836;52.286;9.576;2023-03-12T00:26:48;-2.90;99.90
44170;DHT22;29836;52.286;9.576;2023-03-12T00:29:14;-2.90;99.90
44170;DHT22;29836;52.286;9.576;2023-03-12T00:31:40;-2.90;99.90
44170;DHT22;29836;52.286;9.576;2023-03-12T00:34:05;-2.90;99.90
44170;DHT22;29836;52.286;9.576;2023-03-12T00:36:31;-2.80;99.90
44170;DHT22;29836;52.286;9.576;2023-03-12T00:38:59;-2.70;99.90
44170;DHT22;29836;52.286;9.576;2023-03-12T00:41:25;-2.60;99.90
44170;DHT22;29836;52.286;9.576;2023-03-12T00:43:51;-2.50;99.90
44170;DHT22;29836;52.286;9.576;2023-03-12T00:46:18;-2.50;99.90
44170;DHT22;29836;52.286;9.576;2023-03-12T00:48:44;-2.50;99.90
44170;DHT22;29836;52.286;9.576;2023-03-12T00:51:10;-2.50;99.90
44170;DHT22;29836;52.286;9.576;2023-03-12T00:53:35;-2.50;99.90
44170;DHT22;29836;52.286;9.576;2023-03-12T00:56:02;-2.50;99.90
44170;DHT22;29836;52.286;9.576;2023-03-12T00:58:27;-2.50;99.90
44170;DHT22;29836;52.286;9.576;2023-03-12T01:00:53;-2.40;99.90
44170;DHT22;29836;52.286;9.576;2023-03-12T01:03:18;-2.40;99.90
44170;DHT22;29836;52.286;9.576;2023-03-12T01:05:44;-2.50;99.90
44170;DHT22;29836;52.286;9.576;2023-03-12T01:08:11;-2.50;99.90
44170;DHT22;29836;52.286;9.576;2023-03-12T01:10:40;-2.50;99.90
44170;DHT22;29836;52.286;9.576;2023-03-12T01:13:06;-2.50;99.90
44170;DHT22;29836;52.286;9.576;2023-03-12T01:15:32;-2.50;99.90
44170;DHT22;29836;52.286;9.576;2023-03-12T01:17:58;-2.50;99.90
44170;DHT22;29836;52.286;9.576;2023-03-12T01:20:23;-2.50;99.90
44170;DHT22;29836;52.286;9.576;2023-03-12T01:22:50;-2.40;99.90
44170;DHT22;29836;52.286;9.576;2023-03-12T01:25:15;-2.40;99.90
44170;DHT22;29836;52.286;9.576;2023-03-12T01:27:41;-2.30;99.90
44170;DHT22;29836;52.286;9.576;2023-03-12T01:30:07;-2.30;99.90
44170;DHT22;29836;52.286;9.576;2023-03-12T01:32:33;-2.30;99.90
44170;DHT22;29836;52.286;9.576;2023-03-12T01:34:58;-2.20;99.90
44170;DHT22;29836;52.286;9.576;2023-03-12T01:37:25;-2.10;99.90
44170;DHT22;29836;52.286;9.576;2023-03-12T01:39:51;-2.00;99.90
44170;DHT22;29836;52.286;9.576;2023-03-12T01:42:16;-2.00;99.90
44170;DHT22;29836;52.286;9.576;2023-03-12T01:44:58;-1.90;99.90
44170;DHT22;29836;52.286;9.576;2023-03-12T01:47:25;-1.90;99.90
44170;DHT22;29836;52.286;9.576;2023-03-12T01:49:52;-1.90;99.90
44170;DHT22;29836;52.286;9.576;2023-03-12T01:52:27;-2.00;99.90
44170;DHT22;29836;52.286;9.576;2023-03-12T01:55:07;-2.10;99.90
44170;DHT22;29836;52.286;9.576;2023-03-12T01:57:37;-2.00;99.90
44170;DHT22;29836;52.286;9.576;2023-03-12T02:00:16;-2.00;99.90
44170;DHT22;29836;52.286;9.576;2023-03-12T02:02:48;-2.10;99.90
44170;DHT22;29836;52.286;9.576;2023-03-12T02:05:26;-2.20;99.90
44170;DHT22;29836;52.286;9.576;2023-03-12T02:07:53;-2.20;99.90
44170;DHT22;29836;52.286;9.576;2023-03-12T02:10:20;-2.20;99.90
44170;DHT22;29836;52.286;9.576;2023-03-12T02:12:46;-2.30;99.90
44170;DHT22;29836;52.286;9.576;2023-03-12T02:15:11;-2.30;99.90
44170;DHT22;29836;52.286;9.576;2023-03-12T02:17:38;-2.20;99.90
44170;DHT22;29836;52.286;9.576;2023-03-12T02:20:27;-2.10;99.90
44170;DHT22;29836;52.286;9.576;2023-03-12T02:23:04;-2.10;99.90
44170;DHT22;29836;52.286;9.576;2023-03-12T02:25:40;-2.10;99.90
44170;DHT22;29836;52.286;9.576;2023-03-12T02:28:14;-2.10;99.90
44170;DHT22;29836;52.286;9.576;2023-03-12T02:30:43;-2.10;99.90
44170;DHT22;29836;52.286;9.576;2023-03-12T02:33:10;-2.20;99.90
44170;DHT22;29836;52.286;9.576;2023-03-12T02:35:36;-2.30;99.90
44170;DHT22;29836;52.286;9.576;2023-03-12T02:38:03;-2.30;99.90
44170;DHT22;29836;52.286;9.576;2023-03-12T02:40:33;-2.30;99.90
44170;DHT22;29836;52.286;9.576;2023-03-12T02:43:07;-2.40;99.90
44170;DHT22;29836;52.286;9.576;2023-03-12T02:45:35;-2.40;99.90
44170;DHT22;29836;52.286;9.576;2023-03-12T02:48:02;-2.30;99.90
44170;DHT22;29836;52.286;9.576;2023-03-12T02:50:28;-2.40;99.90
44170;DHT22;29836;52.286;9.576;2023-03-12T02:52:53;-2.40;99.90
44170;DHT22;29836;52.286;9.576;2023-03-12T02:55:19;-2.40;99.90
44170;DHT22;29836;52.286;9.576;2023-03-12T02:57:44;-2.50;99.90
44170;DHT22;29836;52.286;9.576;2023-03-12T03:00:11;-2.60;99.90
44170;DHT22;29836;52.286;9.576;2023-03-12T03:02:38;-2.60;99.90
44170;DHT22;29836;52.286;9.576;2023-03-12T03:05:04;-2.70;99.90
44170;DHT22;29836;52.286;9.576;2023-03-12T03:07:30;-2.70;99.90
44170;DHT22;29836;52.286;9.576;2023-03-12T03:09:56;-2.70;99.90
44170;DHT22;29836;52.286;9.576;2023-03-12T03:12:28;-2.70;99.90
44170;DHT22;29836;52.286;9.576;2023-03-12T03:14:54;-2.80;99.90
44170;DHT22;29836;52.286;9.576;2023-03-12T03:17:19;-2.80;99.90
44170;DHT22;29836;52.286;9.576;2023-03-12T03:19:47;-2.90;99.90
44170;DHT22;29836;52.286;9.576;2023-03-12T03:22:13;-2.90;99.90
44170;DHT22;29836;52.286;9.576;2023-03-12T03:24:38;-2.90;99.90
44170;DHT22;29836;52.286;9.576;2023-03-12T03:27:04;-2.90;99.90
44170;DHT22;29836;52.286;9.576;2023-03-12T03:29:30;-2.90;99.90
44170;DHT22;29836;52.286;9.576;2023-03-12T03:31:55;-2.90;99.90
44170;DHT22;29836;52.286;9.576;2023-03-12T03:34:21;-2.90;99.90
44170;DHT22;29836;52.286;9.576;2023-03-12T03:36:46;-2.90;99.90
44170;DHT22;29836;52.286;9.576;2023-03-12T03:39:12;-2.90;99.90
44170;DHT22;29836;52.286;9.576;2023-03-12T03:41:38;-3.00;99.90
44170;DHT22;29836;52.286;9.576;2023-03-12T03:44:03;-3.10;99.90
44170;DHT22;29836;52.286;9.576;2023-03-12T03:46:30;-3.20;99.90
44170;DHT22;29836;52.286;9.576;2023-03-12T03:48:56;-3.30;99.90
44170;DHT22;29836;52.286;9.576;2023-03-12T03:51:22;-3.40;99.90
44170;DHT22;29836;52.286;9.576;2023-03-12T03:53:47;-3.40;99.90
44170;DHT22;29836;52.286;9.576;2023-03-12T03:56:15;-3.40;99.90
44170;DHT22;29836;52.286;9.576;2023-03-12T03:58:41;-3.50;99.90
44170;DHT22;29836;52.286;9.576;2023-03-12T04:01:07;-3.50;99.90
44170;DHT22;29836;52.286;9.576;2023-03-12T04:03:33;-3.50;99.90
44170;DHT22;29836;52.286;9.576;2023-03-12T04:06:01;-3.60;99.90
44170;DHT22;29836;52.286;9.576;2023-03-12T04:08:27;-3.50;99.90
44170;DHT22;29836;52.286;9.576;2023-03-12T04:10:53;-3.40;99.90
44170;DHT22;29836;52.286;9.576;2023-03-12T04:13:20;-3.40;99.90
44170;DHT22;29836;52.286;9.576;2023-03-12T04:15:47;-3.50;99.90
44170;DHT22;29836;52.286;9.576;2023-03-12T04:18:13;-3.50;99.90
44170;DHT22;29836;52.286;9.576;2023-03-12T04:20:39;-3.50;99.90
44170;DHT22;29836;52.286;9.576;2023-03-12T04:23:05;-3.40;99.90
44170;DHT22;29836;52.286;9.576;2023-03-12T04:25:30;-3.40;99.90
44170;DHT22;29836;52.286;9.576;2023-03-12T04:27:56;-3.40;99.90
44170;DHT22;29836;52.286;9.576;2023-03-12T04:30:21;-3.40;99.90
44170;DHT22;29836;52.286;9.576;2023-03-12T04:32:47;-3.40;99.90
44170;DHT22;29836;52.286;9.576;2023-03-12T04:35:12;-3.30;99.90
44170;DHT22;29836;52.286;9.576;2023-03-12T04:37:38;-3.10;99.90
44170;DHT22;29836;52.286;9.576;2023-03-12T04:40:04;-2.90;99.90
44170;DHT22;29836;52.286;9.576;2023-03-12T04:42:33;-2.60;99.90
44170;DHT22;29836;52.286;9.576;2023-03-12T04:44:59;-2.30;99.90
44170;DHT22;29836;52.286;9.576;2023-03-12T04:47:25;-2.20;99.90
44170;DHT22;29836;52.286;9.576;2023-03-12T04:49:50;-2.30;99.90
44170;DHT22;29836;52.286;9.576;2023-03-12T04:52:16;-2.40;99.90
44170;DHT22;29836;52.286;9.576;2023-03-12T04:54:42;-2.50;99.90
44170;DHT22;29836;52.286;9.576;2023-03-12T04:57:08;-2.60;99.90
44170;DHT22;29836;52.286;9.576;2023-03-12T04:59:34;-2.70;99.90
44170;DHT22;29836;52.286;9.576;2023-03-12T05:01:59;-2.80;99.90
44170;DHT22;29836;52.286;9.576;2023-03-12T05:04:25;-2.90;99.90
44170;DHT22;29836;52.286;9.576;2023-03-12T05:06:51;-2.90;99.90
44170;DHT22;29836;52.286;9.576;2023-03-12T05:09:16;-2.80;99.90
44170;DHT22;29836;52.286;9.576;2023-03-12T05:11:42;-2.40;99.90
44170;DHT22;29836;52.286;9.576;2023-03-12T05:14:10;-2.00;99.90
44170;DHT22;29836;52.286;9.576;2023-03-12T05:16:35;-1.60;99.90
44170;DHT22;29836;52.286;9.576;2023-03-12T05:19:01;-1.30;99.90
44170;DHT22;29836;52.286;9.576;2023-03-12T05:21:27;-1.10;99.90
44170;DHT22;29836;52.286;9.576;2023-03-12T05:23:52;-1.00;99.90
44170;DHT22;29836;52.286;9.576;2023-03-12T05:26:21;-0.80;99.90
44170;DHT22;29836;52.286;9.576;2023-03-12T05:28:47;-0.70;99.90
44170;DHT22;29836;52.286;9.576;2023-03-12T05:31:13;-0.70;99.90
44170;DHT22;29836;52.286;9.576;2023-03-12T05:33:39;-0.60;99.90
44170;DHT22;29836;52.286;9.576;2023-03-12T05:36:05;-0.60;99.90
44170;DHT22;29836;52.286;9.576;2023-03-12T05:38:31;-0.70;99.90
44170;DHT22;29836;52.286;9.576;2023-03-12T05:40:57;-0.70;99.90
44170;DHT22;29836;52.286;9.576;2023-03-12T05:43:24;-0.70;99.90
44170;DHT22;29836;52.286;9.576;2023-03-12T05:45:50;-0.70;99.90
44170;DHT22;29836;52.286;9.576;2023-03-12T05:48:15;-0.80;99.90
44170;DHT22;29836;52.286;9.576;2023-03-12T05:50:41;-0.90;99.90
44170;DHT22;29836;52.286;9.576;2023-03-12T05:53:07;-1.00;99.90
44170;DHT22;29836;52.286;9.576;2023-03-12T05:55:37;-1.10;99.90
44170;DHT22;29836;52.286;9.576;2023-03-12T05:58:04;-1.30;99.90
44170;DHT22;29836;52.286;9.576;2023-03-12T06:00:30;-1.60;99.90
44170;DHT22;29836;52.286;9.576;2023-03-12T06:02:56;-1.70;99.90
44170;DHT22;29836;52.286;9.576;2023-03-12T06:05:22;-1.80;99.90
44170;DHT22;29836;52.286;9.576;2023-03-12T06:07:47;-1.70;99.90
44170;DHT22;29836;52.286;9.576;2023-03-12T06:10:13;-1.60;99.90
44170;DHT22;29836;52.286;9.576;2023-03-12T06:12:38;-1.40;99.90
44170;DHT22;29836;52.286;9.576;2023-03-12T06:15:04;-1.20;99.90
44170;DHT22;29836;52.286;9.576;2023-03-12T06:17:30;-1.00;99.90
44170;DHT22;29836;52.286;9.576;2023-03-12T06:19:57;-0.90;99.90
44170;DHT22;29836;52.286;9.576;2023-03-12T06:22:23;-0.90;99.90
44170;DHT22;29836;52.286;9.576;2023-03-12T06:24:49;-0.80;99.90
44170;DHT22;29836;52.286;9.576;2023-03-12T06:27:16;-0.80;99.90
44170;DHT22;29836;52.286;9.576;2023-03-12T06:29:42;-0.90;99.90
44170;DHT22;29836;52.286;9.576;2023-03-12T06:32:07;-0.90;99.90
44170;DHT22;29836;52.286;9.576;2023-03-12T06:34:33;-0.90;99.90
44170;DHT22;29836;52.286;9.576;2023-03-12T06:36:59;-0.80;99.90
44170;DHT22;29836;52.286;9.576;2023-03-12T06:39:25;-0.90;99.90
44170;DHT22;29836;52.286;9.576;2023-03-12T06:41:51;-0.80;99.90
44170;DHT22;29836;52.286;9.576;2023-03-12T06:44:17;-0.80;99.90
44170;DHT22;29836;52.286;9.576;2023-03-12T06:46:42;-0.70;99.90
44170;DHT22;29836;52.286;9.576;2023-03-12T06:49:09;-0.60;99.90
44170;DHT22;29836;52.286;9.576;2023-03-12T06:51:35;-0.50;99.90
44170;DHT22;29836;52.286;9.576;2023-03-12T06:54:00;-0.30;99.90
44170;DHT22;29836;52.286;9.576;2023-03-12T06:56:27;-0.20;99.90
44170;DHT22;29836;52.286;9.576;2023-03-12T06:58:52;-0.10;99.90
44170;DHT22;29836;52.286;9.576;2023-03-12T07:01:18;-0.10;99.90
44170;DHT22;29836;52.286;9.576;2023-03-12T07:03:44;-0.10;99.90
44170;DHT22;29836;52.286;9.576;2023-03-12T07:06:18;-0.10;99.90
44170;DHT22;29836;52.286;9.576;2023-03-12T07:08:45;-0.10;99.90
44170;DHT22;29836;52.286;9.576;2023-03-12T07:11:10;0.00;99.90
44170;DHT22;29836;52.286;9.576;2023-03-12T07:13:36;0.00;99.90
44170;DHT22;29836;52.286;9.576;2023-03-12T07:16:02;0.10;99.90
44170;DHT22;29836;52.286;9.576;2023-03-12T07:18:28;0.20;99.90
44170;DHT22;29836;52.286;9.576;2023-03-12T07:20:54;0.20;99.90
44170;DHT22;29836;52.286;9.576;2023-03-12T07:23:20;0.50;99.90
44170;DHT22;29836;52.286;9.576;2023-03-12T07:25:45;0.80;99.90
44170;DHT22;29836;52.286;9.576;2023-03-12T07:28:12;1.00;99.90
44170;DHT22;29836;52.286;9.576;2023-03-12T07:30:38;1.20;99.90
44170;DHT22;29836;52.286;9.576;2023-03-12T07:33:07;1.50;99.90
44170;DHT22;29836;52.286;9.576;2023-03-12T07:35:33;1.60;99.90
44170;DHT22;29836;52.286;9.576;2023-03-12T07:37:59;1.80;99.90
44170;DHT22;29836;52.286;9.576;2023-03-12T07:40:25;1.80;99.90
44170;DHT22;29836;52.286;9.576;2023-03-12T07:42:51;1.70;99.90
44170;DHT22;29836;52.286;9.576;2023-03-12T07:45:17;1.70;99.90
44170;DHT22;29836;52.286;9.576;2023-03-12T07:47:44;1.50;99.90
44170;DHT22;29836;52.286;9.576;2023-03-12T07:50:10;1.40;99.90
44170;DHT22;29836;52.286;9.576;2023-03-12T07:52:35;1.50;99.90
44170;DHT22;29836;52.286;9.576;2023-03-12T07:55:01;1.60;99.90
44170;DHT22;29836;52.286;9.576;2023-03-12T07:57:26;1.80;99.90
44170;DHT22;29836;52.286;9.576;2023-03-12T07:59:52;1.90;99.90
44170;DHT22;29836;52.286;9.576;2023-03-12T08:02:18;2.00;99.90
44170;DHT22;29836;52.286;9.576;2023-03-12T08:04:44;2.00;99.90
44170;DHT22;29836;52.286;9.576;2023-03-12T08:07:10;2.00;99.90
44170;DHT22;29836;52.286;9.576;2023-03-12T08:09:36;2.20;99.90
44170;DHT22;29836;52.286;9.576;2023-03-12T08:12:03;2.40;99.90
44170;DHT22;29836;52.286;9.576;2023-03-12T08:14:29;2.40;99.90
44170;DHT22;29836;52.286;9.576;2023-03-12T08:16:59;2.30;99.90
44170;DHT22;29836;52.286;9.576;2023-03-12T08:19:25;2.60;99.90
44170;DHT22;29836;52.286;9.576;2023-03-12T08:21:51;2.40;99.90
44170;DHT22;29836;52.286;9.576;2023-03-12T08:24:18;2.50;99.90
44170;DHT22;29836;52.286;9.576;2023-03-12T08:26:44;2.60;99.90
44170;DHT22;29836;52.286;9.576;2023-03-12T08:29:10;2.70;99.90
44170;DHT22;29836;52.286;9.576;2023-03-12T08:31:35;2.60;99.90
44170;DHT22;29836;52.286;9.576;2023-03-12T08:34:01;2.60;99.90
44170;DHT22;29836;52.286;9.576;2023-03-12T08:36:27;2.60;99.90
44170;DHT22;29836;52.286;9.576;2023-03-12T08:38:52;2.50;99.90
44170;DHT22;29836;52.286;9.576;2023-03-12T08:41:18;2.50;99.90
44170;DHT22;29836;52.286;9.576;2023-03-12T08:43:44;2.50;99.90
44170;DHT22;29836;52.286;9.576;2023-03-12T08:46:09;2.60;99.90
44170;DHT22;29836;52.286;9.576;2023-03-12T08:48:35;2.70;99.90
44170;DHT22;29836;52.286;9.576;2023-03-12T08:51:01;2.70;99.90
44170;DHT22;29836;52.286;9.576;2023-03-12T08:53:29;2.70;99.90
44170;DHT22;29836;52.286;9.576;2023-03-12T08:55:55;2.70;99.90
44170;DHT22;29836;52.286;9.576;2023-03-12T08:58:22;2.60;99.90
44170;DHT22;29836;52.286;9.576;2023-03-12T09:00:49;2.60;99.90
44170;DHT22;29836;52.286;9.576;2023-03-12T09:03:14;2.60;99.90
44170;DHT22;29836;52.286;9.576;2023-03-12T09:05:41;2.70;99.90
44170;DHT22;29836;52.286;9.576;2023-03-12T09:08:07;2.70;99.90
44170;DHT22;29836;52.286;9.576;2023-03-12T09:10:33;2.70;99.90
44170;DHT22;29836;52.286;9.576;2023-03-12T09:12:59;2.70;99.90
44170;DHT22;29836;52.286;9.576;2023-03-12T09:15:25;2.70;99.90
44170;DHT22;29836;52.286;9.576;2023-03-12T09:17:50;2.80;99.90
44170;DHT22;29836;52.286;9.576;2023-03-12T09:20:16;2.90;99.90
44170;DHT22;29836;52.286;9.576;2023-03-12T09:22:42;3.00;99.90
44170;DHT22;29836;52.286;9.576;2023-03-12T09:25:09;3.10;99.90
44170;DHT22;29836;52.286;9.576;2023-03-12T09:27:41;3.10;99.90
44170;DHT22;29836;52.286;9.576;2023-03-12T09:30:08;3.10;99.90
44170;DHT22;29836;52.286;9.576;2023-03-12T09:32:35;3.00;99.90
44170;DHT22;29836;52.286;9.576;2023-03-12T09:35:00;3.10;99.90
44170;DHT22;29836;52.286;9.576;2023-03-12T09:37:26;3.40;99.90
44170;DHT22;29836;52.286;9.576;2023-03-12T09:39:52;3.40;99.90
44170;DHT22;29836;52.286;9.576;2023-03-12T09:42:39;3.40;99.90
44170;DHT22;29836;52.286;9.576;2023-03-12T09:45:07;3.60;99.90
44170;DHT22;29836;52.286;9.576;2023-03-12T09:47:43;3.70;99.90
44170;DHT22;29836;52.286;9.576;2023-03-12T09:52:54;4.20;99.30
44170;DHT22;29836;52.286;9.576;2023-03-12T09:55:22;4.40;99.40
44170;DHT22;29836;52.286;9.576;2023-03-12T09:57:49;4.60;99.50
44170;DHT22;29836;52.286;9.576;2023-03-12T10:00:19;4.80;99.90
44170;DHT22;29836;52.286;9.576;2023-03-12T10:05:30;4.60;99.80
44170;DHT22;29836;52.286;9.576;2023-03-12T10:08:16;4.60;99.90
44170;DHT22;29836;52.286;9.576;2023-03-12T10:10:53;4.60;99.90
44170;DHT22;29836;52.286;9.576;2023-03-12T10:16:23;4.90;99.90
44170;DHT22;29836;52.286;9.576;2023-03-12T10:22:00;5.10;99.90
44170;DHT22;29836;52.286;9.576;2023-03-12T10:27:21;5.00;99.90
44170;DHT22;29836;52.286;9.576;2023-03-12T10:29:49;4.70;99.90
44170;DHT22;29836;52.286;9.576;2023-03-12T10:32:36;4.60;99.90
44170;DHT22;29836;52.286;9.576;2023-03-12T10:35:19;4.40;99.90
44170;DHT22;29836;52.286;9.576;2023-03-12T10:37:54;4.40;99.90
44170;DHT22;29836;52.286;9.576;2023-03-12T10:40:23;4.10;99.90
44170;DHT22;29836;52.286;9.576;2023-03-12T10:42:50;4.10;99.90
44170;DHT22;29836;52.286;9.576;2023-03-12T10:45:43;4.00;99.90
44170;DHT22;29836;52.286;9.576;2023-03-12T10:48:22;3.90;99.90
44170;DHT22;29836;52.286;9.576;2023-03-12T10:51:03;4.00;99.90
44170;DHT22;29836;52.286;9.576;2023-03-12T10:53:34;4.00;99.90
44170;DHT22;29836;52.286;9.576;2023-03-12T10:56:09;4.00;99.90
44170;DHT22;29836;52.286;9.576;2023-03-12T10:58:41;4.00;99.90
44170;DHT22;29836;52.286;9.576;2023-03-12T11:03:44;3.60;99.90
44170;DHT22;29836;52.286;9.576;2023-03-12T11:06:20;3.40;99.90
44170;DHT22;29836;52.286;9.576;2023-03-12T11:11:34;3.10;99.90
44170;DHT22;29836;52.286;9.576;2023-03-12T11:16:46;2.60;99.90
44170;DHT22;29836;52.286;9.576;2023-03-12T11:19:14;2.50;99.90
44170;DHT22;29836;52.286;9.576;2023-03-12T11:21:56;2.50;99.90
44170;DHT22;29836;52.286;9.576;2023-03-12T11:24:22;2.40;99.90
44170;DHT22;29836;52.286;9.576;2023-03-12T11:27:00;2.40;99.90
44170;DHT22;29836;52.286;9.576;2023-03-12T11:29:30;2.40;99.90
44170;DHT22;29836;52.286;9.576;2023-03-12T11:34:31;2.40;99.90
44170;DHT22;29836;52.286;9.576;2023-03-12T11:39:55;2.20;99.90
44170;DHT22;29836;52.286;9.576;2023-03-12T11:45:27;1.90;99.90
44170;DHT22;29836;52.286;9.576;2023-03-12T12:06:53;1.60;99.90
44170;DHT22;29836;52.286;9.576;2023-03-12T12:09:48;1.60;99.90
44170;DHT22;29836;52.286;9.576;2023-03-12T12:15:12;1.60;99.90
44170;DHT22;29836;52.286;9.576;2023-03-12T12:20:41;1.80;99.90
44170;DHT22;29836;52.286;9.576;2023-03-12T12:28:29;1.90;99.90
44170;DHT22;29836;52.286;9.576;2023-03-12T12:33:48;2.00;99.90
44170;DHT22;29836;52.286;9.576;2023-03-12T12:36:18;2.10;99.90
44170;DHT22;29836;52.286;9.576;2023-03-12T12:41:19;2.10;99.90
44170;DHT22;29836;52.286;9.576;2023-03-12T12:43:50;2.00;99.90
44170;DHT22;29836;52.286;9.576;2023-03-12T12:46:21;1.90;99.90
44170;DHT22;29836;52.286;9.576;2023-03-12T12:49:03;1.90;99.90
44170;DHT22;29836;52.286;9.576;2023-03-12T12:51:35;1.90;99.90
44170;DHT22;29836;52.286;9.576;2023-03-12T12:59:53;1.90;99.90
44170;DHT22;29836;52.286;9.576;2023-03-12T13:02:25;1.90;99.90
44170;DHT22;29836;52.286;9.576;2023-03-12T13:04:57;1.90;99.90
44170;DHT22;29836;52.286;9.576;2023-03-12T13:09:51;2.00;99.90
44170;DHT22;29836;52.286;9.576;2023-03-12T13:12:35;2.00;99.90
44170;DHT22;29836;52.286;9.576;2023-03-12T13:20:27;2.00;99.90
44170;DHT22;29836;52.286;9.576;2023-03-12T13:23:15;2.10;99.90
44170;DHT22;29836;52.286;9.576;2023-03-12T13:30:58;2.70;99.90
44170;DHT22;29836;52.286;9.576;2023-03-12T13:33:41;2.90;99.90
44170;DHT22;29836;52.286;9.576;2023-03-12T13:41:36;3.20;99.90
44170;DHT22;29836;52.286;9.576;2023-03-12T13:47:01;3.10;99.90
44170;DHT22;29836;52.286;9.576;2023-03-12T13:49:54;3.00;99.90
44170;DHT22;29836;52.286;9.576;2023-03-12T13:52:27;3.10;99.90
44170;DHT22;29836;52.286;9.576;2023-03-12T13:55:25;3.10;99.90
44170;DHT22;29836;52.286;9.576;2023-03-12T13:57:53;3.10;99.90
44170;DHT22;29836;52.286;9.576;2023-03-12T14:00:25;3.20;99.90
44170;DHT22;29836;52.286;9.576;2023-03-12T14:02:57;3.30;99.90
44170;DHT22;29836;52.286;9.576;2023-03-12T14:05:24;3.30;99.90
44170;DHT22;29836;52.286;9.576;2023-03-12T14:10:29;3.40;99.90
44170;DHT22;29836;52.286;9.576;2023-03-12T14:18:26;3.30;99.90
44170;DHT22;29836;52.286;9.576;2023-03-12T14:20:58;3.30;99.90
44170;DHT22;29836;52.286;9.576;2023-03-12T14:23:28;3.30;99.90
44170;DHT22;29836;52.286;9.576;2023-03-12T14:26:00;3.30;99.90
44170;DHT22;29836;52.286;9.576;2023-03-12T14:28:26;3.30;99.90
44170;DHT22;29836;52.286;9.576;2023-03-12T14:33:25;3.90;99.90
44170;DHT22;29836;52.286;9.576;2023-03-12T14:36:08;4.50;99.90
44170;DHT22;29836;52.286;9.576;2023-03-12T14:38:40;4.90;99.90
44170;DHT22;29836;52.286;9.576;2023-03-12T14:41:11;5.50;99.90
44170;DHT22;29836;52.286;9.576;2023-03-12T14:43:41;5.90;99.90
44170;DHT22;29836;52.286;9.576;2023-03-12T14:46:20;6.30;99.90
44170;DHT22;29836;52.286;9.576;2023-03-12T14:48:49;6.40;99.90
44170;DHT22;29836;52.286;9.576;2023-03-12T14:51:24;6.60;99.90
44170;DHT22;29836;52.286;9.576;2023-03-12T14:53:51;6.20;99.90
44170;DHT22;29836;52.286;9.576;2023-03-12T14:56:29;6.00;99.90
44170;DHT22;29836;52.286;9.576;2023-03-12T14:58:59;5.90;99.90
44170;DHT22;29836;52.286;9.576;2023-03-12T15:01:30;5.90;99.90
44170;DHT22;29836;52.286;9.576;2023-03-12T15:03:59;5.70;99.90
44170;DHT22;29836;52.286;9.576;2023-03-12T15:06:29;5.50;99.90
44170;DHT22;29836;52.286;9.576;2023-03-12T15:08:56;5.30;99.90
44170;DHT22;29836;52.286;9.576;2023-03-12T15:11:24;5.20;99.90
44170;DHT22;29836;52.286;9.576;2023-03-12T15:13:52;5.20;99.90
44170;DHT22;29836;52.286;9.576;2023-03-12T15:16:19;5.10;99.90
44170;DHT22;29836;52.286;9.576;2023-03-12T15:18:45;5.20;99.90
44170;DHT22;29836;52.286;9.576;2023-03-12T15:21:13;5.30;99.90
44170;DHT22;29836;52.286;9.576;2023-03-12T15:23:43;5.30;99.90
44170;DHT22;29836;52.286;9.576;2023-03-12T15:29:04;5.10;99.90
44170;DHT22;29836;52.286;9.576;2023-03-12T15:31:44;5.00;99.90
44170;DHT22;29836;52.286;9.576;2023-03-12T15:34:12;5.00;99.90
44170;DHT22;29836;52.286;9.576;2023-03-12T15:36:46;5.10;99.90
44170;DHT22;29836;52.286;9.576;2023-03-12T15:41:51;5.30;99.90
44170;DHT22;29836;52.286;9.576;2023-03-12T15:44:26;5.40;99.90
44170;DHT22;29836;52.286;9.576;2023-03-12T15:47:22;5.40;99.90
44170;DHT22;29836;52.286;9.576;2023-03-12T15:49:52;5.40;99.90
44170;DHT22;29836;52.286;9.576;2023-03-12T15:57:47;5.10;99.90
44170;DHT22;29836;52.286;9.576;2023-03-12T16:02:54;5.00;99.90
44170;DHT22;29836;52.286;9.576;2023-03-12T16:05:29;5.00;99.90
44170;DHT22;29836;52.286;9.576;2023-03-12T16:07:55;5.00;99.90
44170;DHT22;29836;52.286;9.576;2023-03-12T16:10:24;5.10;99.90
44170;DHT22;29836;52.286;9.576;2023-03-12T16:13:00;5.10;99.90
44170;DHT22;29836;52.286;9.576;2023-03-12T16:15:32;5.10;99.90
44170;DHT22;29836;52.286;9.576;2023-03-12T16:17:58;5.20;99.90
44170;DHT22;29836;52.286;9.576;2023-03-12T16:20:24;5.10;99.90
44170;DHT22;29836;52.286;9.576;2023-03-12T16:22:50;5.10;99.90
44170;DHT22;29836;52.286;9.576;2023-03-12T16:25:16;5.10;99.90
44170;DHT22;29836;52.286;9.576;2023-03-12T16:27:50;5.10;99.90
44170;DHT22;29836;52.286;9.576;2023-03-12T16:30:27;5.10;99.90
44170;DHT22;29836;52.286;9.576;2023-03-12T16:32:54;5.10;99.90
44170;DHT22;29836;52.286;9.576;2023-03-12T16:35:19;5.10;99.90
44170;DHT22;29836;52.286;9.576;2023-03-12T16:37:45;5.20;99.90
44170;DHT22;29836;52.286;9.576;2023-03-12T16:40:13;5.20;99.90
44170;DHT22;29836;52.286;9.576;2023-03-12T16:42:43;5.30;99.90
44170;DHT22;29836;52.286;9.576;2023-03-12T16:45:12;5.30;99.90
44170;DHT22;29836;52.286;9.576;2023-03-12T16:47:38;5.40;99.90
44170;DHT22;29836;52.286;9.576;2023-03-12T16:50:19;5.40;99.90
44170;DHT22;29836;52.286;9.576;2023-03-12T16:52:46;5.50;99.90
44170;DHT22;29836;52.286;9.576;2023-03-12T16:55:14;5.50;99.90
44170;DHT22;29836;52.286;9.576;2023-03-12T16:58:01;5.50;99.90
44170;DHT22;29836;52.286;9.576;2023-03-12T17:00:29;5.50;99.90
44170;DHT22;29836;52.286;9.576;2023-03-12T17:02:55;5.60;99.90
44170;DHT22;29836;52.286;9.576;2023-03-12T17:05:27;5.60;99.90
44170;DHT22;29836;52.286;9.576;2023-03-12T17:07:53;5.60;99.90
44170;DHT22;29836;52.286;9.576;2023-03-12T17:10:19;5.60;99.90
44170;DHT22;29836;52.286;9.576;2023-03-12T17:12:45;5.60;99.90
44170;DHT22;29836;52.286;9.576;2023-03-12T17:15:19;5.60;99.90
44170;DHT22;29836;52.286;9.576;2023-03-12T17:17:46;5.70;99.90
44170;DHT22;29836;52.286;9.576;2023-03-12T17:20:16;5.70;99.90
44170;DHT22;29836;52.286;9.576;2023-03-12T17:22:42;5.70;99.90
44170;DHT22;29836;52.286;9.576;2023-03-12T17:25:23;5.70;99.90
44170;DHT22;29836;52.286;9.576;2023-03-12T17:27:49;5.70;99.90
44170;DHT22;29836;52.286;9.576;2023-03-12T17:30:16;5.70;99.90
44170;DHT22;29836;52.286;9.576;2023-03-12T17:32:42;5.70;99.90
44170;DHT22;29836;52.286;9.576;2023-03-12T17:35:07;5.70;99.90
44170;DHT22;29836;52.286;9.576;2023-03-12T17:37:33;5.70;99.90
44170;DHT22;29836;52.286;9.576;2023-03-12T17:39:59;5.70;99.90
44170;DHT22;29836;52.286;9.576;2023-03-12T17:42:33;5.80;99.90
44170;DHT22;29836;52.286;9.576;2023-03-12T17:45:00;5.80;99.90